Time;durP1;ratioP1;P1;durP2;ratioP2;P2;SDS_P1;SDS_P2;PMS_P1;PMS_P2;Temp;Humidity;BMP_temperature;BMP_pressure;BME280_temperature;BME280_humidity;BME280_pressure;Samples;Min_cycle;Max_cycle;Signal;HPM_P1;HPM_P2
2021/07/07 00:00:20;;;;;;;7.88;3.72;;;13.20;99.90;;;;;;6131396;23;20021;-45
2021/07/07 00:02:47;;;;;;;7.75;4.03;;;13.20;99.90;;;;;;6120724;23;20057;-44
2021/07/07 00:05:16;;;;;;;8.60;4.22;;;13.20;99.90;;;;;;6121224;23;20022;-42
2021/07/07 00:07:43;;;;;;;8.77;4.05;;;13.10;99.90;;;;;;6121952;23;20319;-43
2021/07/07 00:10:13;;;;;;;6.78;4.20;;;13.10;99.90;;;;;;6121689;23;20403;-45
2021/07/07 00:12:39;;;;;;;9.45;4.43;;;13.10;99.90;;;;;;6095495;23;20057;-47
2021/07/07 00:15:13;;;;;;;7.03;4.25;;;13.10;99.90;;;;;;6121745;23;20022;-43
2021/07/07 00:17:40;;;;;;;7.03;3.45;;;13.10;99.90;;;;;;6121184;23;20033;-46
2021/07/07 00:20:08;;;;;;;7.28;4.25;;;13.10;99.90;;;;;;6121448;23;20018;-44
2021/07/07 00:22:35;;;;;;;7.25;4.22;;;13.00;99.90;;;;;;6121822;23;20434;-46
2021/07/07 00:25:03;;;;;;;8.88;4.47;;;13.00;99.90;;;;;;6131440;23;20064;-43
2021/07/07 00:27:32;;;;;;;7.53;4.07;;;13.00;99.90;;;;;;6121168;23;20445;-43
2021/07/07 00:30:03;;;;;;;8.60;4.50;;;13.00;99.90;;;;;;6120818;23;20018;-46
2021/07/07 00:32:30;;;;;;;9.07;4.30;;;13.00;99.90;;;;;;6121163;23;20022;-48
2021/07/07 00:35:05;;;;;;;9.25;5.55;;;13.00;99.90;;;;;;6121267;23;20317;-43
2021/07/07 00:37:32;;;;;;;10.00;4.45;;;13.00;99.90;;;;;;6120555;23;20025;-44
2021/07/07 00:39:58;;;;;;;9.30;4.80;;;13.00;99.90;;;;;;6120960;23;20025;-44
2021/07/07 00:42:24;;;;;;;6.00;4.22;;;13.00;99.90;;;;;;6121073;23;20026;-45
2021/07/07 00:44:50;;;;;;;9.68;4.00;;;13.00;99.90;;;;;;6120789;23;20102;-56
2021/07/07 00:47:17;;;;;;;8.77;4.22;;;13.10;99.90;;;;;;6080268;23;20432;-47
2021/07/07 00:49:43;;;;;;;13.40;5.45;;;13.00;99.90;;;;;;6120553;23;20351;-43
2021/07/07 00:52:11;;;;;;;7.22;4.75;;;13.00;99.90;;;;;;6120919;23;20026;-49
2021/07/07 00:54:38;;;;;;;8.75;4.93;;;13.00;99.90;;;;;;6130795;23;20029;-46
2021/07/07 00:57:05;;;;;;;8.80;4.85;;;13.00;99.90;;;;;;6130061;23;20029;-46
2021/07/07 00:59:37;;;;;;;8.40;5.20;;;13.00;99.90;;;;;;6121066;23;20038;-45
2021/07/07 01:02:04;;;;;;;7.88;5.05;;;13.00;99.90;;;;;;6119766;23;20081;-46
2021/07/07 01:04:31;;;;;;;10.27;5.40;;;13.00;99.90;;;;;;6094420;23;20045;-46
2021/07/07 01:06:57;;;;;;;8.15;5.20;;;13.00;99.90;;;;;;6119904;23;20564;-43
2021/07/07 01:09:23;;;;;;;8.65;5.03;;;13.10;99.90;;;;;;6119500;23;20017;-45
2021/07/07 01:11:49;;;;;;;11.10;5.47;;;13.20;99.90;;;;;;6130330;23;20026;-46
2021/07/07 01:14:16;;;;;;;8.10;5.18;;;13.30;99.90;;;;;;6129853;23;20018;-46
2021/07/07 01:16:43;;;;;;;7.78;5.00;;;13.30;99.90;;;;;;6120503;23;20022;-48
2021/07/07 01:19:15;;;;;;;12.13;5.43;;;13.40;99.90;;;;;;6120717;23;20127;-46
2021/07/07 01:21:49;;;;;;;7.38;4.93;;;13.50;99.90;;;;;;6120909;23;20048;-46
2021/07/07 01:24:17;;;;;;;6.95;5.25;;;13.60;99.90;;;;;;6094126;23;20064;-46
2021/07/07 01:26:45;;;;;;;7.60;5.18;;;13.60;99.90;;;;;;6120155;23;20021;-48
2021/07/07 01:29:12;;;;;;;9.45;5.50;;;13.60;99.90;;;;;;6120521;23;20021;-46
2021/07/07 01:31:39;;;;;;;9.63;5.05;;;13.60;99.90;;;;;;6119193;23;20459;-47
2021/07/07 01:34:07;;;;;;;10.07;4.95;;;13.70;99.90;;;;;;6119306;23;20459;-48
2021/07/07 01:36:37;;;;;;;11.02;5.22;;;13.70;99.90;;;;;;6119946;23;20451;-44
2021/07/07 01:39:08;;;;;;;10.57;5.32;;;13.70;99.90;;;;;;6129627;23;20024;-48
2021/07/07 01:41:34;;;;;;;10.82;5.63;;;13.70;99.90;;;;;;6130383;23;20060;-48
2021/07/07 01:44:01;;;;;;;9.05;5.20;;;13.80;99.90;;;;;;6119894;23;20018;-44
2021/07/07 01:46:27;;;;;;;8.48;4.72;;;13.70;99.90;;;;;;6094481;23;20104;-44
2021/07/07 01:48:56;;;;;;;11.45;4.45;;;13.70;99.90;;;;;;6129281;23;20065;-47
2021/07/07 01:51:22;;;;;;;14.43;5.30;;;13.80;99.90;;;;;;6120064;23;20044;-46
2021/07/07 01:53:49;;;;;;;12.98;5.07;;;13.70;99.90;;;;;;6119753;23;20029;-50
2021/07/07 01:56:15;;;;;;;9.25;4.80;;;13.60;99.90;;;;;;6119577;23;20033;-44
2021/07/07 01:58:41;;;;;;;7.28;4.43;;;13.60;99.90;;;;;;6119717;23;20468;-46
2021/07/07 02:01:08;;;;;;;7.55;4.97;;;13.50;99.90;;;;;;6120572;23;20022;-46
2021/07/07 02:03:34;;;;;;;8.35;5.05;;;13.40;99.90;;;;;;6094723;23;20026;-47
2021/07/07 02:06:00;;;;;;;6.35;4.80;;;13.40;99.90;;;;;;6121210;23;20328;-45
2021/07/07 02:08:27;;;;;;;6.32;4.90;;;13.40;99.90;;;;;;6121708;23;20043;-45
2021/07/07 02:10:54;;;;;;;8.82;5.07;;;13.30;99.90;;;;;;6121264;23;20018;-43
2021/07/07 02:13:21;;;;;;;10.15;5.30;;;13.30;99.90;;;;;;6120275;23;20455;-47
2021/07/07 02:15:47;;;;;;;8.32;5.30;;;13.30;99.90;;;;;;6120036;23;20018;-47
2021/07/07 02:18:14;;;;;;;8.98;5.72;;;13.30;99.90;;;;;;6120066;23;20018;-44
2021/07/07 02:20:42;;;;;;;9.55;5.65;;;13.20;99.90;;;;;;6120680;23;20068;-47
2021/07/07 02:23:13;;;;;;;9.35;5.97;;;13.20;99.90;;;;;;6120748;23;20029;-45
2021/07/07 02:25:44;;;;;;;8.07;5.63;;;13.20;99.90;;;;;;6093497;23;20758;-47
2021/07/07 02:28:12;;;;;;;8.80;6.30;;;13.20;99.90;;;;;;6120026;23;20044;-45
2021/07/07 02:30:39;;;;;;;10.43;6.10;;;13.20;99.90;;;;;;6120323;23;20021;-45
2021/07/07 02:33:08;;;;;;;11.45;6.65;;;13.10;99.90;;;;;;6129841;23;20126;-46
2021/07/07 02:35:41;;;;;;;10.40;6.35;;;13.10;99.90;;;;;;6129394;23;20041;-44
2021/07/07 02:38:09;;;;;;;7.53;5.93;;;13.10;99.90;;;;;;6129529;23;20022;-45
2021/07/07 02:40:37;;;;;;;9.05;5.50;;;13.10;99.90;;;;;;6119929;23;20024;-47
2021/07/07 02:43:07;;;;;;;8.63;5.55;;;13.10;99.90;;;;;;6093129;23;20704;-46
2021/07/07 02:45:35;;;;;;;10.07;5.53;;;13.10;99.90;;;;;;6120254;23;20162;-45
2021/07/07 02:48:03;;;;;;;10.32;6.18;;;13.00;99.90;;;;;;6103197;23;20061;-48
2021/07/07 02:50:29;;;;;;;11.45;5.72;;;13.00;99.90;;;;;;6119475;23;20026;-47
2021/07/07 02:52:56;;;;;;;7.20;5.18;;;13.00;99.90;;;;;;6118378;23;20084;-44
2021/07/07 02:55:23;;;;;;;7.63;5.32;;;13.00;99.90;;;;;;6120089;23;20041;-45
2021/07/07 02:57:56;;;;;;;7.72;5.55;;;13.00;99.90;;;;;;6120137;23;20029;-46
2021/07/07 03:00:33;;;;;;;7.97;5.40;;;12.90;99.90;;;;;;6120298;23;20018;-47
2021/07/07 03:03:10;;;;;;;8.55;5.13;;;12.90;99.90;;;;;;6119916;23;20041;-50
2021/07/07 03:05:41;;;;;;;9.90;5.40;;;12.90;99.90;;;;;;6119570;23;20076;-47
2021/07/07 03:08:09;;;;;;;6.35;5.10;;;12.90;99.90;;;;;;6129927;23;20026;-47
2021/07/07 03:10:42;;;;;;;7.45;5.50;;;12.80;99.90;;;;;;6121565;23;20109;-46
2021/07/07 03:13:09;;;;;;;14.35;5.60;;;12.80;99.90;;;;;;6122549;23;20029;-45
2021/07/07 03:15:37;;;;;;;12.13;6.07;;;12.80;99.90;;;;;;6121943;23;20081;-47
2021/07/07 03:18:07;;;;;;;8.52;5.55;;;12.80;99.90;;;;;;6121593;23;20018;-48
2021/07/07 03:20:34;;;;;;;14.20;6.30;;;12.80;99.90;;;;;;6121916;23;20041;-44
2021/07/07 03:23:01;;;;;;;10.07;6.30;;;12.70;99.90;;;;;;6121627;23;20081;-46
2021/07/07 03:25:29;;;;;;;11.23;6.10;;;12.70;99.90;;;;;;6121151;23;20022;-46
2021/07/07 03:27:56;;;;;;;9.00;5.03;;;12.80;99.90;;;;;;6121900;23;20392;-44
2021/07/07 03:30:25;;;;;;;10.15;5.80;;;12.70;99.90;;;;;;6121729;23;20041;-45
2021/07/07 03:32:53;;;;;;;11.02;5.53;;;12.70;99.90;;;;;;6121159;23;20022;-49
2021/07/07 03:35:20;;;;;;;8.15;5.40;;;12.80;99.90;;;;;;6121922;23;20388;-46
2021/07/07 03:37:47;;;;;;;9.85;6.15;;;12.80;99.90;;;;;;6122017;23;20080;-46
2021/07/07 03:40:14;;;;;;;12.07;6.10;;;12.70;99.90;;;;;;6122287;23;20020;-43
2021/07/07 03:42:40;;;;;;;11.10;6.25;;;12.80;99.90;;;;;;6121622;23;20073;-47
2021/07/07 03:45:09;;;;;;;6.90;6.18;;;12.70;99.90;;;;;;6122060;23;20021;-46
2021/07/07 03:47:36;;;;;;;11.68;6.53;;;12.70;99.90;;;;;;6121736;23;20105;-46
2021/07/07 03:50:04;;;;;;;9.02;5.97;;;12.80;99.90;;;;;;6121716;23;20110;-47
2021/07/07 03:52:32;;;;;;;10.82;6.53;;;12.80;99.90;;;;;;6121870;23;20097;-45
2021/07/07 03:55:00;;;;;;;9.00;6.50;;;12.80;99.90;;;;;;6121645;23;20048;-46
2021/07/07 03:57:26;;;;;;;8.88;6.72;;;12.80;99.90;;;;;;6122106;23;20018;-44
2021/07/07 03:59:52;;;;;;;10.10;6.78;;;12.80;99.90;;;;;;6131611;23;20042;-53
2021/07/07 04:02:19;;;;;;;10.25;6.80;;;12.90;99.90;;;;;;6121184;23;20105;-45
2021/07/07 04:04:45;;;;;;;9.73;6.60;;;12.90;99.90;;;;;;6121642;23;20033;-47
2021/07/07 04:07:11;;;;;;;12.02;6.70;;;12.90;99.90;;;;;;6121129;23;20489;-45
2021/07/07 04:09:37;;;;;;;12.88;7.03;;;13.00;99.90;;;;;;6121299;23;20022;-49
2021/07/07 04:12:04;;;;;;;10.77;6.90;;;13.10;99.90;;;;;;6121153;23;20026;-44
2021/07/07 04:14:31;;;;;;;11.88;7.43;;;13.10;99.90;;;;;;6120856;23;20731;-46
2021/07/07 04:16:58;;;;;;;11.82;7.38;;;13.20;99.90;;;;;;6121204;23;20047;-46
2021/07/07 04:19:26;;;;;;;9.80;7.25;;;13.20;99.90;;;;;;6120494;23;20373;-48
2021/07/07 04:21:55;;;;;;;9.90;7.28;;;13.20;99.90;;;;;;6120700;23;20018;-45
2021/07/07 04:24:24;;;;;;;11.35;7.00;;;13.30;99.90;;;;;;6120879;23;20029;-44
2021/07/07 04:26:51;;;;;;;9.50;6.32;;;13.40;99.90;;;;;;6120552;23;20447;-46
2021/07/07 04:29:18;;;;;;;10.75;7.50;;;13.40;99.90;;;;;;6129609;23;20018;-47
2021/07/07 04:31:44;;;;;;;13.52;7.25;;;13.50;99.90;;;;;;6094190;23;20026;-48
2021/07/07 04:34:14;;;;;;;9.35;6.53;;;13.60;99.90;;;;;;6120122;23;20022;-46
2021/07/07 04:36:42;;;;;;;10.40;7.78;;;13.70;99.90;;;;;;6130819;23;20041;-47
2021/07/07 04:39:09;;;;;;;11.25;7.05;;;13.70;99.90;;;;;;6093667;23;20084;-49
2021/07/07 04:41:38;;;;;;;8.23;6.40;;;13.90;99.90;;;;;;6120251;23;20447;-49
2021/07/07 04:44:05;;;;;;;10.02;6.78;;;14.00;99.90;;;;;;6105376;23;20026;-50
2021/07/07 04:46:32;;;;;;;9.77;6.72;;;14.10;99.90;;;;;;6093829;23;20028;-49
2021/07/07 04:48:58;;;;;;;9.18;6.68;;;14.10;99.90;;;;;;6130615;23;20022;-50
2021/07/07 04:51:27;;;;;;;12.25;6.80;;;14.30;99.90;;;;;;6130037;23;20468;-52
2021/07/07 04:53:56;;;;;;;10.18;5.82;;;14.40;99.90;;;;;;6120508;23;20041;-49
2021/07/07 04:56:24;;;;;;;9.48;6.00;;;14.50;99.90;;;;;;6120425;23;20077;-48
2021/07/07 04:58:53;;;;;;;8.85;5.93;;;14.70;99.90;;;;;;6120390;23;20045;-48
2021/07/07 05:01:19;;;;;;;7.85;5.63;;;14.80;99.90;;;;;;6119875;23;20022;-50
2021/07/07 05:03:48;;;;;;;8.88;5.80;;;14.80;99.90;;;;;;6120491;23;20570;-47
2021/07/07 05:06:14;;;;;;;8.57;5.13;;;14.90;99.90;;;;;;6120412;23;20105;-49
2021/07/07 05:08:41;;;;;;;6.60;5.10;;;15.00;99.90;;;;;;6120536;23;20022;-46
2021/07/07 05:11:10;;;;;;;6.05;5.32;;;15.00;99.90;;;;;;6120742;23;20079;-46
2021/07/07 05:13:44;;;;;;;7.93;5.07;;;15.10;99.90;;;;;;6131363;23;20022;-48
2021/07/07 05:16:21;;;;;;;6.88;4.60;;;15.40;99.90;;;;;;6121132;23;20085;-47
2021/07/07 05:18:48;;;;;;;6.43;4.10;;;15.80;99.90;;;;;;6095614;23;20022;-49
2021/07/07 05:21:23;;;;;;;5.85;3.97;;;16.10;99.90;;;;;;6120214;23;20026;-49
2021/07/07 05:23:52;;;;;;;5.45;3.97;;;16.30;99.90;;;;;;6121334;23;20076;-55
2021/07/07 05:26:27;;;;;;;7.75;4.20;;;16.60;99.90;;;;;;6121117;23;20018;-48
2021/07/07 05:29:03;;;;;;;5.70;3.65;;;16.70;99.90;;;;;;6120658;23;20616;-49
2021/07/07 05:31:34;;;;;;;5.32;3.28;;;16.90;99.90;;;;;;6120373;23;20018;-49
2021/07/07 05:34:00;;;;;;;6.53;3.78;;;17.00;99.90;;;;;;6120442;23;20022;-47
2021/07/07 05:36:29;;;;;;;5.97;3.40;;;17.20;99.90;;;;;;6120419;23;20018;-47
2021/07/07 05:38:58;;;;;;;7.38;3.50;;;17.10;99.90;;;;;;6120286;23;20739;-49
2021/07/07 05:41:27;;;;;;;7.35;4.85;;;17.30;99.90;;;;;;6119895;23;20030;-49
2021/07/07 05:43:54;;;;;;;28.08;24.52;;;17.30;99.90;;;;;;6120506;23;20017;-51
2021/07/07 05:46:21;;;;;;;8.98;6.07;;;17.40;99.90;;;;;;6120879;23;20026;-47
2021/07/07 05:48:48;;;;;;;25.40;20.38;;;17.20;99.90;;;;;;6120898;23;20108;-56
2021/07/07 05:51:16;;;;;;;13.75;9.63;;;17.10;99.90;;;;;;6120679;23;20018;-50
2021/07/07 05:53:45;;;;;;;8.27;5.60;;;17.00;99.90;;;;;;6120314;23;20025;-49
2021/07/07 05:56:14;;;;;;;15.60;13.50;;;17.00;99.90;;;;;;6120245;23;20079;-46
2021/07/07 05:58:46;;;;;;;11.95;8.23;;;16.90;99.90;;;;;;6120662;23;20029;-51
2021/07/07 06:01:13;;;;;;;28.48;23.98;;;16.80;99.90;;;;;;6119944;23;20029;-48
2021/07/07 06:03:44;;;;;;;6.57;3.95;;;16.80;99.90;;;;;;6120064;23;20034;-51
2021/07/07 06:06:13;;;;;;;8.85;5.60;;;16.80;99.90;;;;;;6119688;23;20029;-48
2021/07/07 06:08:42;;;;;;;12.02;8.85;;;16.80;99.90;;;;;;6119441;23;20033;-54
2021/07/07 06:11:10;;;;;;;81.22;72.72;;;16.90;99.90;;;;;;6118312;23;20022;-46
2021/07/07 06:13:38;;;;;;;59.13;52.67;;;16.90;99.90;;;;;;6128947;23;20022;-52
2021/07/07 06:16:13;;;;;;;8.73;6.43;;;16.90;99.90;;;;;;6120197;23;20025;-48
2021/07/07 06:18:44;;;;;;;30.08;26.80;;;16.90;99.90;;;;;;6119814;23;20018;-50
2021/07/07 06:21:14;;;;;;;13.63;9.52;;;16.90;99.90;;;;;;6119495;23;20125;-50
2021/07/07 06:23:40;;;;;;;18.00;14.63;;;16.90;99.90;;;;;;6119919;23;20018;-51
2021/07/07 06:26:06;;;;;;;7.40;4.28;;;17.10;99.90;;;;;;6119972;23;20057;-52
2021/07/07 06:28:45;;;;;;;9.18;5.28;;;17.10;99.90;;;;;;6120155;23;20085;-45
2021/07/07 06:31:13;;;;;;;12.02;8.50;;;17.30;99.90;;;;;;6129263;23;20388;-45
2021/07/07 06:33:40;;;;;;;7.55;3.78;;;17.30;99.90;;;;;;6118048;23;20351;-52
2021/07/07 06:36:10;;;;;;;6.35;3.67;;;17.40;99.90;;;;;;6119966;23;20014;-48
2021/07/07 06:38:37;;;;;;;8.77;4.50;;;17.50;99.90;;;;;;6120304;23;20022;-50
2021/07/07 06:41:05;;;;;;;6.20;3.42;;;17.70;99.90;;;;;;6117544;23;20024;-49
2021/07/07 06:43:36;;;;;;;8.10;4.78;;;17.90;99.90;;;;;;6119218;23;20022;-50
2021/07/07 06:46:02;;;;;;;13.25;6.63;;;18.00;99.90;;;;;;6119849;23;20028;-51
2021/07/07 06:48:32;;;;;;;9.55;5.00;;;18.20;99.90;;;;;;6118926;23;20028;-48
2021/07/07 06:51:01;;;;;;;;;;;18.30;99.90;;;;;;6129244;23;20040;-48
2021/07/07 06:53:28;;;;;;;47.13;38.08;;;18.30;99.90;;;;;;6118951;23;19921;-50
2021/07/07 06:55:57;;;;;;;12.82;6.53;;;18.40;99.90;;;;;;6119096;23;20696;-52
2021/07/07 06:58:23;;;;;;;13.88;10.43;;;18.60;99.90;;;;;;6092858;23;20018;-46
2021/07/07 07:00:52;;;;;;;50.53;44.70;;;18.70;99.90;;;;;;6118105;23;20021;-52
2021/07/07 07:03:19;;;;;;;9.60;5.93;;;18.80;99.90;;;;;;6093356;23;20281;-49
2021/07/07 07:05:49;;;;;;;12.00;3.70;;;18.80;99.90;;;;;;6093081;23;20028;-47
2021/07/07 07:08:17;;;;;;;8.52;4.38;;;18.90;99.90;;;;;;6119670;23;20029;-54
2021/07/07 07:10:46;;;;;;;16.13;11.60;;;18.80;99.90;;;;;;6092883;23;20085;-50
2021/07/07 07:13:13;;;;;;;8.32;3.53;;;18.90;99.90;;;;;;6119359;23;20117;-50
2021/07/07 07:15:42;;;;;;;42.20;36.47;;;19.10;99.90;;;;;;6129745;23;20018;-50
2021/07/07 07:18:10;;;;;;;15.25;11.15;;;19.00;99.90;;;;;;6117330;23;20092;-53
2021/07/07 07:20:37;;;;;;;19.58;15.20;;;19.00;99.90;;;;;;6119456;23;20014;-46
2021/07/07 07:23:09;;;;;;;13.82;10.27;;;19.10;99.90;;;;;;6129727;23;20018;-47
2021/07/07 07:25:36;;;;;;;13.60;9.80;;;19.10;99.90;;;;;;6119355;23;20508;-50
2021/07/07 07:28:05;;;;;;;11.07;6.63;;;19.20;99.90;;;;;;6118818;23;20074;-50
2021/07/07 07:30:34;;;;;;;7.65;4.10;;;19.30;99.90;;;;;;6117988;23;20021;-49
2021/07/07 07:33:00;;;;;;;8.68;4.10;;;19.50;99.90;;;;;;6118395;23;20017;-55
2021/07/07 07:35:30;;;;;;;7.82;3.60;;;19.70;99.90;;;;;;6119571;23;20024;-51
2021/07/07 07:38:11;;;;;;;7.90;3.17;;;19.90;99.90;;;;;;6118927;23;20022;-53
2021/07/07 07:40:42;;;;;;;8.50;4.13;;;20.10;99.90;;;;;;6119234;23;20264;-47
2021/07/07 07:43:10;;;;;;;;;;;20.20;99.90;;;;;;6129081;23;20075;-51
2021/07/07 07:45:42;;;;;;;10.75;4.35;;;20.20;99.90;;;;;;6094068;23;20386;-51
2021/07/07 07:48:11;;;;;;;11.27;3.83;;;20.30;99.90;;;;;;6118922;23;20588;-47
2021/07/07 07:50:38;;;;;;;8.95;3.92;;;20.40;99.90;;;;;;6129303;23;20346;-49
2021/07/07 07:53:07;;;;;;;7.70;3.85;;;20.30;99.90;;;;;;6091870;23;20026;-50
2021/07/07 07:55:33;;;;;;;7.55;3.58;;;20.30;99.90;;;;;;6119951;23;20022;-51
2021/07/07 07:58:03;;;;;;;7.45;3.75;;;20.30;99.90;;;;;;6120190;23;20028;-52
2021/07/07 08:00:29;;;;;;;16.02;12.02;;;20.40;99.90;;;;;;6130159;23;20041;-49
2021/07/07 08:02:55;;;;;;;12.63;9.18;;;20.40;99.90;;;;;;6120596;23;20565;-52
2021/07/07 08:05:27;;;;;;;14.80;10.60;;;20.50;99.90;;;;;;6121441;23;20034;-49
2021/07/07 08:07:57;;;;;;;10.32;5.93;;;20.50;99.90;;;;;;6131093;23;20098;-50
2021/07/07 08:10:26;;;;;;;10.90;7.60;;;20.40;99.90;;;;;;6121114;23;20029;-47
2021/07/07 08:12:58;;;;;;;11.02;5.32;;;20.30;99.90;;;;;;6120393;23;20108;-51
2021/07/07 08:15:26;;;;;;;16.42;11.85;;;20.30;99.90;;;;;;6120792;23;20045;-52
2021/07/07 08:17:56;;;;;;;8.65;5.35;;;20.40;99.90;;;;;;6120449;23;20027;-50
2021/07/07 08:20:26;;;;;;;7.85;3.80;;;20.30;99.90;;;;;;6120280;23;20463;-49
2021/07/07 08:22:57;;;;;;;7.70;2.92;;;20.40;99.90;;;;;;6120437;23;20029;-49
2021/07/07 08:25:24;;;;;;;33.45;28.15;;;20.40;99.90;;;;;;6120722;23;20026;-49
2021/07/07 08:27:52;;;;;;;17.15;11.00;;;20.60;99.90;;;;;;6121349;23;20021;-51
2021/07/07 08:30:19;;;;;;;16.90;11.07;;;20.60;99.90;;;;;;6120912;23;20018;-51
2021/07/07 08:32:48;;;;;;;18.08;10.27;;;20.90;99.90;;;;;;6120583;23;20022;-45
2021/07/07 08:35:15;;;;;;;16.60;9.18;;;21.10;99.90;;;;;;6120131;23;20037;-47
2021/07/07 08:37:42;;;;;;;9.15;4.35;;;21.20;99.90;;;;;;6120206;23;20150;-49
2021/07/07 08:40:09;;;;;;;12.02;4.72;;;21.40;99.90;;;;;;6120728;23;20228;-49
2021/07/07 08:42:37;;;;;;;11.38;5.95;;;21.70;99.90;;;;;;6120569;23;20022;-47
2021/07/07 08:45:09;;;;;;;9.70;3.83;;;22.20;99.90;;;;;;6121172;23;20068;-46
2021/07/07 08:47:38;;;;;;;9.38;3.85;;;22.50;97.30;;;;;;6130660;23;20017;-47
2021/07/07 08:50:07;;;;;;;10.07;3.65;;;22.50;99.80;;;;;;6120820;23;20018;-45
2021/07/07 08:52:33;;;;;;;8.82;3.10;;;22.70;99.30;;;;;;6120933;23;20050;-43
2021/07/07 08:55:00;;;;;;;9.75;3.90;;;22.90;99.90;;;;;;6120983;23;20025;-44
2021/07/07 08:57:30;;;;;;;8.65;3.00;;;22.90;96.30;;;;;;6095890;23;20022;-46
2021/07/07 08:59:57;;;;;;;8.05;3.30;;;23.10;97.80;;;;;;6121313;23;20022;-46
2021/07/07 09:02:23;;;;;;;9.27;3.33;;;23.40;96.30;;;;;;6120448;23;20026;-48
2021/07/07 09:04:50;;;;;;;13.23;5.72;;;23.20;94.80;;;;;;6120449;23;20026;-47
2021/07/07 09:07:23;;;;;;;9.80;3.55;;;23.50;90.70;;;;;;6120524;23;20025;-49
2021/07/07 09:09:53;;;;;;;10.57;3.95;;;23.90;93.30;;;;;;6094363;23;20067;-54
2021/07/07 09:12:41;;;;;;;9.18;3.50;;;23.70;91.60;;;;;;6098908;23;20045;-48
2021/07/07 09:15:11;;;;;;;9.77;3.17;;;23.80;92.10;;;;;;6119816;23;20022;-47
2021/07/07 09:17:54;;;;;;;9.50;3.25;;;24.10;90.40;;;;;;6120459;23;20025;-47
2021/07/07 09:20:34;;;;;;;11.27;4.10;;;24.70;89.30;;;;;;6119754;23;20018;-49
2021/07/07 09:23:24;;;;;;;13.63;6.03;;;24.80;88.30;;;;;;6119856;23;20021;-58
2021/07/07 09:25:59;;;;;;;9.02;3.35;;;25.10;80.70;;;;;;6129753;23;20053;-50
2021/07/07 09:28:31;;;;;;;7.90;2.97;;;25.60;84.90;;;;;;6119346;23;20029;-49
2021/07/07 09:31:00;;;;;;;8.15;3.08;;;25.70;77.50;;;;;;6120378;23;20018;-51
2021/07/07 09:33:46;;;;;;;6.53;2.58;;;25.50;78.50;;;;;;6097634;23;20022;-49
2021/07/07 09:36:31;;;;;;;7.43;2.70;;;25.70;77.40;;;;;;6119863;23;20022;-50
2021/07/07 09:39:18;;;;;;;14.57;9.45;;;25.90;76.70;;;;;;6120050;23;20096;-52
2021/07/07 09:41:48;;;;;;;8.93;3.55;;;26.00;73.20;;;;;;6119431;23;20576;-45
2021/07/07 09:44:35;;;;;;;13.98;11.18;;;25.90;71.90;;;;;;6097184;23;20136;-56
2021/07/07 09:47:05;;;;;;;13.48;9.73;;;26.10;71.10;;;;;;6120105;23;20121;-55
2021/07/07 09:49:32;;;;;;;9.90;5.47;;;26.20;73.20;;;;;;6094663;23;20547;-57
2021/07/07 09:52:22;;;;;;;10.25;3.58;;;26.40;73.60;;;;;;6098264;23;20029;-56
2021/07/07 09:54:49;;;;;;;6.43;2.67;;;26.40;71.10;;;;;;6120248;23;20022;-47
2021/07/07 09:57:17;;;;;;;7.40;3.17;;;26.50;68.90;;;;;;6119149;23;20613;-51
2021/07/07 09:59:43;;;;;;;8.13;5.00;;;26.00;63.80;;;;;;6119115;23;20024;-52
2021/07/07 10:02:09;;;;;;;10.63;6.82;;;26.20;66.70;;;;;;6100514;23;20022;-49
2021/07/07 10:04:57;;;;;;;8.20;5.10;;;26.20;67.70;;;;;;6096957;23;20026;-52
2021/07/07 10:07:46;;;;;;;6.93;2.40;;;26.40;69.40;;;;;;6097974;23;20025;-53
2021/07/07 10:10:34;;;;;;;8.05;2.55;;;26.00;67.30;;;;;;6097251;23;20097;-49
2021/07/07 10:13:00;;;;;;;7.50;3.75;;;25.70;66.70;;;;;;6128716;23;20113;-51
2021/07/07 10:15:27;;;;;;;7.72;2.40;;;25.40;68.40;;;;;;6129232;23;20022;-48
2021/07/07 10:17:54;;;;;;;8.27;2.88;;;25.50;68.30;;;;;;6119769;23;20014;-49
2021/07/07 10:20:20;;;;;;;8.88;3.88;;;25.10;66.30;;;;;;6119260;23;20099;-51
2021/07/07 10:22:48;;;;;;;7.60;2.42;;;25.20;66.70;;;;;;6120720;23;20029;-50
2021/07/07 10:25:35;;;;;;;7.15;2.13;;;25.80;69.80;;;;;;6119904;23;20029;-52
2021/07/07 10:28:06;;;;;;;6.30;2.20;;;26.00;67.70;;;;;;6119830;23;20025;-50
2021/07/07 10:30:56;;;;;;;7.85;2.13;;;26.30;59.70;;;;;;6119998;23;20053;-51
2021/07/07 10:33:26;;;;;;;8.80;2.00;;;27.10;63.30;;;;;;6119576;23;20344;-52
2021/07/07 10:36:21;;;;;;;10.77;2.53;;;26.30;60.70;;;;;;6119872;23;20018;-48
2021/07/07 10:38:52;;;;;;;6.88;2.17;;;25.60;61.60;;;;;;6119379;23;20486;-50
2021/07/07 10:41:47;;;;;;;7.15;2.63;;;25.20;64.60;;;;;;6120831;23;20029;-56
2021/07/07 10:44:22;;;;;;;8.93;3.63;;;24.70;61.40;;;;;;6120458;23;20025;-55
2021/07/07 10:46:54;;;;;;;8.23;4.38;;;24.40;64.70;;;;;;6130060;23;20018;-52
2021/07/07 10:49:30;;;;;;;9.13;5.95;;;24.30;66.40;;;;;;6120109;23;20044;-54
2021/07/07 10:51:59;;;;;;;8.68;2.50;;;24.70;65.10;;;;;;6119525;23;20029;-49
2021/07/07 10:54:34;;;;;;;7.57;2.95;;;24.40;66.10;;;;;;6119703;23;20426;-48
2021/07/07 10:57:03;;;;;;;8.70;3.10;;;24.10;65.50;;;;;;6119744;23;20072;-52
2021/07/07 10:59:37;;;;;;;7.93;3.20;;;24.10;66.70;;;;;;6120437;23;20076;-49
2021/07/07 11:02:07;;;;;;;10.23;3.15;;;24.90;67.80;;;;;;6119358;23;20467;-47
2021/07/07 11:04:54;;;;;;;12.05;2.97;;;25.20;65.60;;;;;;6129223;23;20045;-50
2021/07/07 11:07:32;;;;;;;7.57;2.95;;;25.40;64.10;;;;;;6119745;23;20325;-49
2021/07/07 11:10:06;;;;;;;6.47;2.60;;;25.90;61.40;;;;;;6119122;23;20018;-54
2021/07/07 11:12:44;;;;;;;8.30;2.55;;;26.20;61.00;;;;;;6119524;23;20057;-50
2021/07/07 11:15:26;;;;;;;7.57;2.17;;;26.60;60.30;;;;;;6119735;23;20387;-50
2021/07/07 11:17:58;;;;;;;6.25;1.75;;;27.10;58.20;;;;;;6119677;23;20077;-51
2021/07/07 11:20:34;;;;;;;6.27;2.17;;;27.50;56.90;;;;;;6119545;23;20014;-50
2021/07/07 11:23:03;;;;;;;9.73;2.05;;;27.80;58.10;;;;;;6093353;23;20029;-55
2021/07/07 11:25:31;;;;;;;5.97;2.03;;;28.10;57.20;;;;;;6128828;23;20022;-51
2021/07/07 11:27:59;;;;;;;4.63;2.03;;;28.30;55.70;;;;;;6119236;23;20024;-46
2021/07/07 11:30:25;;;;;;;6.68;1.90;;;28.00;55.00;;;;;;6131147;23;20053;-52
2021/07/07 11:33:03;;;;;;;5.75;1.77;;;28.00;54.90;;;;;;6121311;23;20105;-52
2021/07/07 11:35:35;;;;;;;7.53;2.00;;;28.00;54.60;;;;;;6120861;23;20017;-51
2021/07/07 11:38:04;;;;;;;6.75;2.88;;;27.30;55.30;;;;;;6121564;23;20410;-52
2021/07/07 11:40:33;;;;;;;7.65;2.53;;;26.30;55.50;;;;;;6130969;23;20097;-54
2021/07/07 11:43:10;;;;;;;6.57;2.45;;;25.70;56.40;;;;;;6120949;23;20041;-52
2021/07/07 11:45:43;;;;;;;6.75;2.22;;;25.20;57.90;;;;;;6121130;23;20066;-60
2021/07/07 11:50:50;;;;;;;6.45;2.22;;;24.50;59.20;;;;;;6130781;23;20024;-51
2021/07/07 11:53:17;;;;;;;6.35;2.22;;;24.60;59.90;;;;;;6130371;23;20025;-50
2021/07/07 11:55:43;;;;;;;9.68;2.58;;;24.90;58.10;;;;;;6129893;23;20025;-49
2021/07/07 11:58:11;;;;;;;8.18;3.20;;;25.00;58.50;;;;;;6094212;23;20022;-49
2021/07/07 12:00:38;;;;;;;9.60;2.70;;;24.60;59.60;;;;;;6120794;23;20026;-50
2021/07/07 12:03:04;;;;;;;9.10;2.33;;;24.40;62.00;;;;;;6119860;23;20052;-52
2021/07/07 12:05:32;;;;;;;6.22;1.73;;;24.70;61.60;;;;;;6120050;23;20104;-49
2021/07/07 12:08:16;;;;;;;6.18;2.33;;;24.80;59.90;;;;;;6119883;23;20130;-50
2021/07/07 12:10:43;;;;;;;6.65;2.60;;;24.60;59.50;;;;;;6129784;23;20022;-58
2021/07/07 12:13:28;;;;;;;8.65;4.28;;;24.70;59.60;;;;;;6103851;23;20028;-49
2021/07/07 12:16:39;;;;;;;8.57;4.03;;;24.50;61.30;;;;;;6120356;23;20018;-45
2021/07/07 12:19:10;;;;;;;9.98;5.57;;;24.20;61.40;;;;;;6121072;23;20146;-48
2021/07/07 12:21:48;;;;;;;9.18;6.40;;;23.60;65.00;;;;;;6119981;23;20026;-48
2021/07/07 12:24:30;;;;;;;6.53;3.20;;;23.20;69.20;;;;;;6120802;23;20018;-49
2021/07/07 12:27:00;;;;;;;5.82;3.25;;;22.70;73.60;;;;;;6120106;23;20024;-51
2021/07/07 12:29:29;;;;;;;5.28;2.53;;;22.50;77.40;;;;;;6120996;23;20022;-47
2021/07/07 12:32:23;;;;;;;10.02;2.53;;;22.40;78.40;;;;;;6130384;23;20037;-52
2021/07/07 12:34:58;;;;;;;12.23;8.32;;;22.10;83.70;;;;;;6120437;23;20018;-46
2021/07/07 12:37:26;;;;;;;7.18;3.10;;;21.90;85.20;;;;;;6120224;23;20063;-47
2021/07/07 12:39:55;;;;;;;11.63;8.32;;;21.60;91.10;;;;;;6120280;23;20022;-50
2021/07/07 12:42:23;;;;;;;15.63;10.20;;;21.10;96.10;;;;;;6120527;23;20022;-48
2021/07/07 12:44:50;;;;;;;17.60;9.88;;;20.80;98.40;;;;;;6130301;23;20022;-49
2021/07/07 12:47:18;;;;;;;8.95;4.10;;;20.70;99.90;;;;;;6129659;23;20022;-48
2021/07/07 12:49:54;;;;;;;9.02;4.28;;;20.50;99.90;;;;;;6130503;23;20018;-57
2021/07/07 12:52:31;;;;;;;10.07;4.82;;;20.30;99.90;;;;;;6130366;23;20351;-53
2021/07/07 12:55:10;;;;;;;8.02;4.13;;;20.20;99.90;;;;;;6120596;23;20021;-50
2021/07/07 12:57:51;;;;;;;17.52;10.40;;;20.20;99.90;;;;;;6129467;23;20367;-48
2021/07/07 13:00:30;;;;;;;10.93;9.30;;;20.50;99.90;;;;;;6127972;23;20049;-49